Time;durP1;ratioP1;P1;durP2;ratioP2;P2;SDS_P1;SDS_P2;PMS_P1;PMS_P2;Temp;Humidity;BMP_temperature;BMP_pressure;BME280_temperature;BME280_humidity;BME280_pressure;Samples;Min_cycle;Max_cycle;Signal;HPM_P1;HPM_P2
2022/06/30 10:02:06;;;;;;;4.35;2.45;;;;;;;;;;5130785;27;20424;-74
2022/06/30 10:16:07;;;;;;;3.22;2.25;;;;;;;;;;4976945;27;1314873;-75
2022/06/30 10:18:35;;;;;;;6.25;2.70;;;;;;;;;;5045057;27;102940;-73
2022/06/30 10:21:01;;;;;;;6.13;2.40;;;;;;;;;;5046290;27;104136;-74
2022/06/30 10:23:26;;;;;;;4.25;2.30;;;;;;;;;;5046849;27;104741;-72
2022/06/30 10:25:52;;;;;;;6.78;2.53;;;;;;;;;;5046062;27;103071;-70
2022/06/30 10:28:18;;;;;;;7.93;2.72;;;;;;;;;;5046953;27;102867;-71
2022/06/30 10:31:03;;;;;;;4.55;2.40;;;;;;;;;;5044446;27;106883;-70
2022/06/30 10:33:37;;;;;;;7.55;2.60;;;;;;;;;;5046096;27;104592;-70
2022/06/30 10:36:21;;;;;;;5.47;2.78;;;;;;;;;;5046565;27;102440;-70
2022/06/30 10:39:04;;;;;;;8.07;2.45;;;;;;;;;;5046465;27;102996;-78
2022/06/30 10:41:29;;;;;;;4.78;2.33;;;;;;;;;;5045782;27;103801;-76
2022/06/30 10:44:03;;;;;;;5.50;2.80;;;;;;;;;;5046813;27;104164;-70
2022/06/30 10:46:36;;;;;;;5.97;2.45;;;;;;;;;;5045671;27;103179;-71
2022/06/30 10:49:08;;;;;;;4.13;2.25;;;;;;;;;;5047090;27;102799;-71
2022/06/30 10:51:33;;;;;;;8.15;2.70;;;;;;;;;;5046072;27;104014;-71
2022/06/30 10:53:58;;;;;;;8.40;2.60;;;;;;;;;;5046991;27;104156;-72
2022/06/30 10:57:04;;;;;;;3.22;2.10;;;;;;;;;;5012284;27;102509;-72
2022/06/30 10:59:31;;;;;;;7.25;2.22;;;;;;;;;;4996447;28;102589;-71
2022/06/30 11:02:07;;;;;;;5.43;2.20;;;;;;;;;;4996873;28;104239;-71
2022/06/30 11:04:34;;;;;;;2.78;1.98;;;;;;;;;;4996495;28;104544;-71
2022/06/30 11:07:10;;;;;;;3.65;2.10;;;;;;;;;;4995023;28;103047;-72
2022/06/30 11:09:43;;;;;;;3.17;1.70;;;;;;;;;;4997100;28;102533;-72
2022/06/30 11:12:13;;;;;;;3.47;2.00;;;;;;;;;;4996107;28;104402;-73
2022/06/30 11:14:46;;;;;;;2.58;2.30;;;;;;;;;;4995941;28;104653;-73
2022/06/30 11:18:42;;;;;;;2.88;2.30;;;;;;;25.12;54.96;101431.78;5039519;27;99777;-75
2022/06/30 11:21:09;;;;;;;3.22;2.47;;;;;;;25.01;53.67;101423.50;5037875;27;99518;-71
2022/06/30 11:23:46;;;;;;;3.65;1.98;;;;;;;25.01;54.79;101425.44;5038750;27;101485;-71
2022/06/30 11:29:12;;;;;;;3.13;2.00;;;;;;;25.00;52.80;101413.78;5028483;28;99568;-72
2022/06/30 11:31:40;;;;;;;2.10;2.00;;;;;;;25.15;52.97;101409.28;5029269;28;99653;-72
2022/06/30 11:34:09;;;;;;;4.70;2.15;;;;;;;25.59;51.84;101414.03;5029327;27;101408;-73
2022/06/30 11:36:39;;;;;;;5.40;1.95;;;;;;;25.27;52.60;101415.66;5029680;28;101204;-73
2022/06/30 11:39:09;;;;;;;3.60;1.98;;;;;;;25.23;53.13;101421.84;5030768;28;99662;-73
2022/06/30 11:41:56;;;;;;;4.55;2.03;;;;;;;25.16;53.54;101424.44;5030218;28;99862;-73
2022/06/30 11:44:25;;;;;;;2.08;1.88;;;;;;;25.16;54.08;101424.44;5030430;27;103099;-73
2022/06/30 11:47:01;;;;;;;3.80;1.92;;;;;;;25.00;54.44;101421.94;5030350;28;101127;-73
2022/06/30 11:49:52;;;;;;;2.30;2.10;;;;;;;25.22;53.15;101416.78;5030101;28;99515;-73
2022/06/30 11:52:31;;;;;;;2.53;1.83;;;;;;;25.03;54.35;101413.03;5030852;28;100242;-73
2022/06/30 11:54:59;;;;;;;2.45;1.80;;;;;;;24.96;54.14;101410.25;5030323;28;101522;-73
2022/06/30 11:57:29;;;;;;;1.90;1.80;;;;;;;24.94;54.19;101404.38;5029146;28;101193;-73
2022/06/30 12:00:05;;;;;;;2.80;1.90;;;;;;;25.02;54.07;101408.75;5030532;28;99294;-73
2022/06/30 12:02:35;;;;;;;2.67;1.80;;;;;;;24.98;54.90;101394.34;5029204;27;100216;-73
2022/06/30 12:05:04;;;;;;;2.15;1.85;;;;;;;24.89;54.40;101399.25;5029633;27;101624;-73
2022/06/30 12:07:35;;;;;;;2.75;1.95;;;;;;;24.92;55.01;101395.03;5029309;27;101067;-73
2022/06/30 12:10:04;;;;;;;1.80;1.70;;;;;;;24.94;55.34;101392.72;5029539;27;99264;-73
2022/06/30 12:12:32;;;;;;;2.03;1.70;;;;;;;24.98;55.04;101383.44;5029446;28;99501;-73
2022/06/30 12:15:01;;;;;;;7.60;1.88;;;;;;;25.00;54.71;101386.59;5029021;27;100456;-73
2022/06/30 12:17:33;;;;;;;2.03;1.75;;;;;;;24.95;54.92;101397.00;5027843;28;101129;-73
2022/06/30 12:20:02;;;;;;;1.70;1.60;;;;;;;24.90;54.91;101392.69;5029431;27;99816;-73
2022/06/30 12:22:29;;;;;;;2.55;1.80;;;;;;;24.91;55.25;101393.47;5029740;28;99446;-73
2022/06/30 12:24:56;;;;;;;1.90;1.80;;;;;;;24.89;55.39;101385.66;5027906;28;101739;-72
2022/06/30 12:27:53;;;;;;;1.88;1.77;;;;;;;25.02;54.93;101381.56;5029247;28;101505;-73
2022/06/30 12:30:31;;;;;;;2.22;1.80;;;;;;;24.93;54.93;101389.22;5007061;28;99378;-73
2022/06/30 12:33:01;;;;;;;2.00;1.80;;;;;;;25.00;54.50;101397.47;5015405;28;99347;-73
2022/06/30 12:35:32;;;;;;;1.90;1.60;;;;;;;25.02;55.13;101388.91;5015509;28;100629;-74
2022/06/30 12:38:11;;;;;;;2.83;1.70;;;;;;;24.95;54.81;101389.63;5014647;28;100421;-73
2022/06/30 12:40:39;;;;;;;3.10;1.77;;;;;;;24.95;54.70;101381.47;5015826;28;99233;-73
2022/06/30 12:43:13;;;;;;;1.60;1.50;;;;;;;24.92;55.28;101370.56;5015909;28;99350;-73
2022/06/30 12:46:00;;;;;;;1.67;1.58;;;;;;;24.91;55.74;101366.25;5014526;28;101576;-73
2022/06/30 12:48:50;;;;;;;1.77;1.67;;;;;;;24.99;54.61;101363.25;5015362;28;101622;-73
2022/06/30 12:51:28;;;;;;;1.75;1.65;;;;;;;24.96;55.37;101360.47;5015628;28;99166;-73
2022/06/30 12:54:09;;;;;;;2.85;1.85;;;;;;;24.92;55.42;101365.13;5014669;28;99541;-72
2022/06/30 12:56:36;;;;;;;2.08;1.88;;;;;;;24.92;55.14;101356.97;5015033;28;101592;-71
2022/06/30 12:59:06;;;;;;;2.47;1.80;;;;;;;24.98;55.42;101348.09;5014679;28;101176;-72
2022/06/30 13:01:39;;;;;;;2.13;1.70;;;;;;;24.94;55.37;101341.84;5015290;28;99297;-72
2022/06/30 13:04:30;;;;;;;1.80;1.70;;;;;;;24.99;54.60;101346.16;5015737;28;99411;-72
2022/06/30 13:06:58;;;;;;;1.87;1.60;;;;;;;24.97;55.37;101346.50;5014052;28;101751;-73
2022/06/30 13:09:27;;;;;;;1.98;1.70;;;;;;;24.98;55.34;101341.84;5015115;28;101757;-73
2022/06/30 13:11:56;;;;;;;1.50;1.40;;;;;;;25.01;55.14;101352.00;5015392;28;99471;-73
2022/06/30 13:14:26;;;;;;;1.60;1.50;;;;;;;25.02;55.46;101339.94;5014986;28;99503;-73
2022/06/30 13:16:53;;;;;;;1.45;1.35;;;;;;;25.03;55.04;101347.75;5014255;28;102236;-73
2022/06/30 13:19:20;;;;;;;3.47;1.80;;;;;;;25.07;55.35;101347.78;5015012;28;101365;-73
2022/06/30 13:21:50;;;;;;;3.08;1.90;;;;;;;25.11;54.77;101353.28;5014154;28;99238;-73
2022/06/30 13:24:18;;;;;;;1.60;1.50;;;;;;;25.11;55.42;101345.88;5015318;28;99460;-73
2022/06/30 13:26:45;;;;;;;1.90;1.80;;;;;;;25.09;55.45;101347.41;5014285;28;101538;-73
2022/06/30 13:29:12;;;;;;;1.55;1.42;;;;;;;25.12;54.70;101352.88;5013950;28;101283;-73
2022/06/30 13:31:38;;;;;;;1.73;1.63;;;;;;;25.15;54.83;101349.44;5014493;28;100114;-73
2022/06/30 13:34:07;;;;;;;2.15;1.40;;;;;;;25.15;55.06;101356.81;5014388;28;99777;-73
2022/06/30 13:36:39;;;;;;;2.53;1.58;;;;;;;25.18;55.31;101351.38;5014259;28;104030;-73
2022/06/30 13:39:07;;;;;;;4.53;1.73;;;;;;;25.21;54.91;101347.97;5014380;28;101566;-75
2022/06/30 13:41:34;;;;;;;2.38;2.05;;;;;;;25.49;54.75;101345.88;5012717;28;99281;-75
2022/06/30 13:44:01;;;;;;;2.90;1.77;;;;;;;25.33;54.63;101332.50;5014967;28;99371;-76
2022/06/30 13:46:30;;;;;;;2.63;1.60;;;;;;;25.23;55.19;101328.53;5014445;28;100600;-76
2022/06/30 13:48:58;;;;;;;1.63;1.52;;;;;;;25.27;55.12;101332.06;5013367;28;101103;-75
2022/06/30 13:51:25;;;;;;;2.55;1.92;;;;;;;25.26;55.07;101341.38;5014837;28;99361;-76
2022/06/30 13:53:51;;;;;;;2.40;1.60;;;;;;;25.26;54.83;101330.50;5014778;28;99404;-74
2022/06/30 13:56:18;;;;;;;3.80;1.83;;;;;;;25.23;55.57;101332.03;5013649;28;101952;-75
2022/06/30 13:58:45;;;;;;;2.45;1.90;;;;;;;25.24;55.01;101321.94;5013736;28;101153;-74
2022/06/30 14:01:12;;;;;;;1.80;1.70;;;;;;;25.23;55.52;101315.72;5014802;28;99685;-73
2022/06/30 14:03:38;;;;;;;2.55;1.70;;;;;;;25.27;54.80;101323.13;5013540;28;99461;-74
2022/06/30 14:06:05;;;;;;;3.38;1.80;;;;;;;25.27;55.13;101318.44;5014094;28;101788;-74
2022/06/30 14:08:32;;;;;;;1.80;1.70;;;;;;;25.28;54.97;101328.19;5014098;28;101087;-74
2022/06/30 14:10:59;;;;;;;1.80;1.70;;;;;;;25.27;55.11;101329.34;5014074;28;99756;-74
2022/06/30 14:13:26;;;;;;;2.80;1.83;;;;;;;25.31;55.53;101342.97;5014370;28;99647;-74
2022/06/30 14:15:53;;;;;;;1.98;1.52;;;;;;;25.34;55.34;101334.09;5013407;28;101872;-74
2022/06/30 14:18:19;;;;;;;1.90;1.80;;;;;;;25.35;54.75;101343.78;5022673;28;100037;-73
2022/06/30 14:20:47;;;;;;;1.80;1.70;;;;;;;25.35;54.75;101332.91;5033823;27;99343;-74
2022/06/30 14:23:15;;;;;;;2.47;1.70;;;;;;;25.38;54.73;101348.50;5033682;27;99403;-73
2022/06/30 14:25:41;;;;;;;3.38;1.50;;;;;;;25.33;54.87;101349.59;5033406;27;101487;-74
2022/06/30 14:28:08;;;;;;;1.92;1.83;;;;;;;25.42;54.40;101358.25;5034090;28;101534;-73
2022/06/30 14:30:35;;;;;;;1.73;1.60;;;;;;;25.40;54.59;101357.84;5033706;27;99598;-74
2022/06/30 14:33:02;;;;;;;1.92;1.70;;;;;;;25.45;54.40;101348.56;5034498;27;99420;-74
2022/06/30 14:35:30;;;;;;;1.60;1.50;;;;;;;25.47;54.57;101353.63;5033735;27;101709;-75
2022/06/30 14:37:57;;;;;;;1.95;1.75;;;;;;;25.68;54.04;101344.84;5022706;27;103882;-78
2022/06/30 14:40:23;;;;;;;2.25;1.63;;;;;;;25.68;53.70;101348.34;5022201;27;100227;-74
2022/06/30 14:42:53;;;;;;;1.83;1.70;;;;;;;25.73;53.62;101350.75;5020292;28;101510;-71
2022/06/30 14:45:22;;;;;;;1.75;1.65;;;;;;;25.71;53.46;101349.53;5021063;28;101560;-73
2022/06/30 14:47:51;;;;;;;1.77;1.67;;;;;;;25.78;53.54;101342.22;4987811;27;101044;-71
2022/06/30 14:50:18;;;;;;;3.25;1.65;;;;;;;25.78;53.41;101338.72;4982095;28;99333;-74
2022/06/30 14:52:46;;;;;;;1.88;1.75;;;;;;;25.90;53.37;101345.84;4979769;28;99603;-71
2022/06/30 14:55:15;;;;;;;1.67;1.42;;;;;;;25.92;53.28;101336.13;4981912;28;101583;-72
2022/06/30 14:57:43;;;;;;;1.92;1.80;;;;;;;25.87;53.74;101350.03;4980978;28;101279;-75
2022/06/30 15:00:13;;;;;;;2.70;1.73;;;;;;;25.81;53.46;101351.56;4975169;28;100234;-74
2022/06/30 15:02:39;;;;;;;2.45;1.85;;;;;;;25.79;53.74;101349.22;4980329;28;99709;-77
2022/06/30 15:05:07;;;;;;;1.98;1.77;;;;;;;25.85;53.24;101345.00;4979614;28;102471;-74
2022/06/30 15:07:34;;;;;;;2.00;1.63;;;;;;;25.89;53.48;101338.78;4979531;28;101333;-74
2022/06/30 15:10:01;;;;;;;2.33;1.88;;;;;;;25.99;53.06;101333.41;4980677;28;99782;-74
2022/06/30 15:12:27;;;;;;;3.17;1.63;;;;;;;25.95;53.26;101327.16;4980207;28;99903;-74
2022/06/30 15:14:54;;;;;;;1.73;1.60;;;;;;;25.94;53.48;101327.53;4978787;28;101484;-73
2022/06/30 15:17:20;;;;;;;1.70;1.60;;;;;;;25.98;53.48;101325.63;4978842;28;100653;-73
2022/06/30 15:19:47;;;;;;;1.77;1.67;;;;;;;25.95;53.75;101318.22;4978470;28;99576;-73
2022/06/30 15:24:59;;;;;;;1.70;1.60;;;;;;;25.93;53.42;101320.53;4978656;28;102148;-74
2022/06/30 15:27:27;;;;;;;1.67;1.58;;;;;;;25.90;53.56;101321.31;4978523;28;101205;-74
2022/06/30 15:29:53;;;;;;;1.70;1.40;;;;;;;25.89;53.61;101312.34;4978339;28;99915;-74
2022/06/30 15:32:23;;;;;;;1.67;1.58;;;;;;;25.90;53.90;101310.41;4979891;28;99914;-74
2022/06/30 15:34:51;;;;;;;1.73;1.45;;;;;;;25.89;53.51;101323.25;4978462;28;101569;-74
2022/06/30 15:37:33;;;;;;;2.08;1.73;;;;;;;25.83;53.43;101313.81;4979967;28;101203;-73
2022/06/30 15:40:00;;;;;;;3.42;1.80;;;;;;;25.84;53.05;101312.69;4979410;28;99571;-72
2022/06/30 15:42:27;;;;;;;1.80;1.70;;;;;;;25.74;51.75;101316.88;4978086;28;99509;-72
2022/06/30 15:44:54;;;;;;;5.45;1.85;;;;;;;25.78;51.04;101317.69;4979087;28;100440;-72
2022/06/30 15:47:25;;;;;;;5.53;2.08;;;;;;;25.76;50.50;101325.47;4980099;28;101179;-72
2022/06/30 15:49:53;;;;;;;5.93;1.65;;;;;;;25.67;50.19;101325.03;4978809;28;100151;-70
2022/06/30 15:52:20;;;;;;;6.50;2.20;;;;;;;25.55;50.05;101322.59;4979331;28;99801;-72
2022/06/30 15:54:50;;;;;;;6.53;1.88;;;;;;;25.44;50.62;101333.41;4978617;28;101138;-73
2022/06/30 15:57:16;;;;;;;2.25;1.38;;;;;;;25.45;49.73;101334.94;4980255;28;101171;-71
2022/06/30 15:59:43;;;;;;;2.10;1.65;;;;;;;25.42;50.12;101333.75;4980460;28;99795;-72
2022/06/30 16:02:09;;;;;;;6.07;2.13;;;;;;;25.40;50.04;101319.75;4977544;28;99965;-72
2022/06/30 16:04:36;;;;;;;2.00;1.60;;;;;;;25.28;50.20;101319.25;4979910;28;101851;-71
2022/06/30 16:07:03;;;;;;;5.20;1.80;;;;;;;25.03;49.65;101327.94;4982425;28;101200;-72
2022/06/30 16:09:29;;;;;;;3.90;1.50;;;;;;;25.17;49.34;101321.84;4981827;28;99978;-72
2022/06/30 16:11:57;;;;;;;4.45;1.58;;;;;;;25.16;48.14;101326.50;4982035;28;99860;-71
2022/06/30 16:14:25;;;;;;;2.65;1.45;;;;;;;24.93;48.44;101329.38;4981535;28;101487;-72
2022/06/30 16:16:53;;;;;;;3.80;1.40;;;;;;;25.01;47.81;101327.50;4980017;28;101523;-71
2022/06/30 16:19:24;;;;;;;2.97;1.50;;;;;;;24.79;47.77;101330.00;4981663;28;100318;-71
2022/06/30 16:21:50;;;;;;;5.68;1.45;;;;;;;24.93;47.82;101320.44;4980162;28;100298;-71
2022/06/30 16:24:17;;;;;;;6.65;1.40;;;;;;;24.49;48.46;101321.06;4980146;28;101585;-71
2022/06/30 16:26:44;;;;;;;3.42;1.52;;;;;;;24.66;48.30;101331.41;4980621;28;101253;-71
2022/06/30 16:29:11;;;;;;;3.28;1.80;;;;;;;24.69;48.17;101340.75;4981079;28;99436;-72
2022/06/30 16:31:38;;;;;;;3.22;1.63;;;;;;;24.67;47.81;101346.56;4981702;28;99565;-71
2022/06/30 16:34:05;;;;;;;2.22;1.50;;;;;;;24.75;47.83;101348.22;4982544;28;101759;-72
2022/06/30 16:36:31;;;;;;;2.85;1.63;;;;;;;24.60;47.82;101352.72;4982714;28;101053;-71
2022/06/30 16:38:58;;;;;;;7.10;1.88;;;;;;;24.06;48.09;101359.31;4982300;28;99313;-71
2022/06/30 16:41:25;;;;;;;5.13;1.52;;;;;;;23.81;48.50;101357.03;4983729;28;99476;-71
2022/06/30 16:43:52;;;;;;;4.07;1.98;;;;;;;24.08;46.95;101350.81;4980448;28;101575;-71
2022/06/30 16:46:19;;;;;;;3.35;1.13;;;;;;;24.31;47.41;101318.91;4982048;28;101038;-72
2022/06/30 16:48:48;;;;;;;5.25;1.40;;;;;;;24.24;47.84;101299.78;4982028;28;99750;-72
2022/06/30 16:51:15;;;;;;;9.10;1.45;;;;;;;24.43;46.51;101285.28;4981351;28;99455;-71
2022/06/30 16:53:42;;;;;;;18.13;1.83;;;;;;;24.20;47.41;101291.59;4980247;28;101322;-71
2022/06/30 16:56:10;;;;;;;4.95;1.48;;;;;;;24.32;46.55;101312.31;4980004;28;101359;-72
2022/06/30 16:58:37;;;;;;;3.45;1.30;;;;;;;24.34;47.12;101325.56;4981110;28;100026;-71
2022/06/30 17:01:08;;;;;;;3.97;1.42;;;;;;;24.32;46.87;101339.50;4982869;28;99516;-72
2022/06/30 17:03:36;;;;;;;5.07;1.50;;;;;;;24.30;46.82;101330.16;4981105;28;101906;-71
2022/06/30 17:06:03;;;;;;;4.05;1.70;;;;;;;23.70;48.12;101341.66;4980514;28;101123;-71
2022/06/30 17:08:30;;;;;;;4.00;1.50;;;;;;;24.01;47.46;101335.19;4982473;28;99255;-72
2022/06/30 17:11:14;;;;;;;3.72;1.60;;;;;;;24.30;46.76;101335.59;4981469;28;99538;-71
2022/06/30 17:13:46;;;;;;;4.30;1.45;;;;;;;24.22;47.65;101337.41;4978903;28;101545;-71
2022/06/30 17:16:16;;;;;;;4.47;1.52;;;;;;;24.18;46.94;101326.50;4980977;28;101053;-71
2022/06/30 17:18:46;;;;;;;6.55;1.52;;;;;;;24.24;46.41;101326.97;4981071;28;100277;-72
2022/06/30 17:21:13;;;;;;;5.00;1.80;;;;;;;23.90;46.67;101355.97;4981871;28;100672;-71
2022/06/30 17:23:41;;;;;;;4.35;1.40;;;;;;;23.83;46.49;101384.59;4980753;28;100652;-71
2022/06/30 17:26:11;;;;;;;4.53;1.55;;;;;;;24.01;46.62;101450.03;4980370;28;101270;-73
2022/06/30 17:28:40;;;;;;;3.75;1.25;;;;;;;24.18;46.68;101492.22;4980909;28;99387;-73
2022/06/30 17:31:07;;;;;;;2.88;1.33;;;;;;;24.22;46.67;101552.06;4982236;28;99772;-73
2022/06/30 17:33:34;;;;;;;2.63;1.27;;;;;;;24.26;47.02;101566.50;4980535;28;101636;-73
2022/06/30 17:36:01;;;;;;;6.30;1.25;;;;;;;24.18;47.90;101540.34;4982733;28;101294;-73
2022/06/30 17:38:28;;;;;;;2.17;1.40;;;;;;;24.20;48.62;101457.31;4981371;28;100151;-72
2022/06/30 17:40:55;;;;;;;6.25;1.25;;;;;;;24.22;48.77;101460.47;4980685;28;99604;-72
2022/06/30 17:43:22;;;;;;;3.50;1.65;;;;;;;24.28;49.07;101479.97;4981608;28;101526;-74
2022/06/30 17:45:49;;;;;;;4.47;3.10;;;;;;;24.20;49.55;101443.75;4981452;28;101752;-71
2022/06/30 17:48:19;;;;;;;3.88;2.10;;;;;;;24.30;49.10;101398.09;4981853;28;99513;-72
2022/06/30 17:50:47;;;;;;;3.45;2.20;;;;;;;24.40;49.01;101438.22;4979204;28;100097;-71
2022/06/30 17:53:15;;;;;;;6.38;2.53;;;;;;;24.33;49.62;101506.03;4979111;28;101901;-71
2022/06/30 17:55:45;;;;;;;7.18;2.85;;;;;;;24.41;48.92;101545.78;4977326;28;101225;-70
2022/06/30 17:58:14;;;;;;;4.03;3.20;;;;;;;24.39;48.98;101543.41;4978708;28;99965;-71
2022/06/30 18:00:42;;;;;;;5.93;3.53;;;;;;;24.41;49.25;101494.91;4980642;28;99596;-71
2022/06/30 18:03:10;;;;;;;5.93;3.60;;;;;;;24.40;49.39;101492.59;4979535;28;101846;-70
2022/06/30 18:05:41;;;;;;;6.60;3.58;;;;;;;24.43;49.32;101505.44;4980801;28;101378;-70
2022/06/30 18:13:35;;;;;;;7.55;4.22;;;;;;;24.44;49.12;101540.41;4981655;28;99553;-70
2022/06/30 18:16:03;;;;;;;4.50;4.00;;;;;;;24.41;49.66;101543.06;4981017;28;101156;-70
2022/06/30 18:18:31;;;;;;;4.22;3.83;;;;;;;24.45;49.25;101541.19;4981196;28;99644;-70
2022/06/30 18:20:57;;;;;;;5.10;3.88;;;;;;;24.42;49.60;101537.25;4982281;28;99499;-70
2022/06/30 18:23:24;;;;;;;4.70;3.67;;;;;;;24.43;49.41;101502.72;4981567;28;101554;-70
2022/06/30 18:25:51;;;;;;;6.30;4.07;;;;;;;24.42;49.32;101463.09;4980998;28;101015;-70
2022/06/30 18:28:17;;;;;;;5.93;4.30;;;;;;;24.42;49.84;101474.75;4980558;28;99251;-70
2022/06/30 18:30:44;;;;;;;5.63;3.78;;;;;;;24.45;50.08;101498.47;4979734;28;99676;-71
2022/06/30 18:33:13;;;;;;;6.93;4.20;;;;;;;24.41;49.76;101500.34;4980401;28;101975;-71
2022/06/30 18:35:40;;;;;;;5.20;3.92;;;;;;;24.42;50.19;101493.78;4980367;28;101184;-71
2022/06/30 18:38:06;;;;;;;5.72;4.60;;;;;;;24.44;50.06;101485.25;4979924;28;99478;-70
2022/06/30 18:40:33;;;;;;;5.57;3.90;;;;;;;24.41;49.68;101491.41;4979644;28;99610;-71
2022/06/30 18:42:59;;;;;;;4.55;4.20;;;;;;;24.42;50.31;101498.44;4980202;28;100658;-71
2022/06/30 18:45:26;;;;;;;4.75;4.32;;;;;;;24.40;49.84;101501.50;4978005;28;100186;-71
2022/06/30 18:47:53;;;;;;;6.28;5.13;;;;;;;24.39;50.64;101493.72;4978337;28;100008;-70
2022/06/30 18:50:19;;;;;;;5.30;4.40;;;;;;;24.38;50.81;101508.47;4979762;28;99844;-71
2022/06/30 18:52:49;;;;;;;5.03;4.30;;;;;;;24.38;50.18;101519.34;4978891;28;101519;-71
2022/06/30 18:55:16;;;;;;;4.90;4.50;;;;;;;24.35;50.74;101512.66;4979296;28;101479;-71
2022/06/30 18:57:44;;;;;;;4.63;4.22;;;;;;;24.34;50.67;101496.75;4979476;28;100029;-71
2022/06/30 19:00:15;;;;;;;5.57;4.45;;;;;;;24.31;50.89;101492.81;4980122;28;99425;-71
2022/06/30 19:02:42;;;;;;;4.73;4.00;;;;;;;24.26;50.74;101476.06;4980543;28;101590;-71
2022/06/30 19:05:09;;;;;;;4.25;3.83;;;;;;;24.14;51.08;101472.38;4979473;28;101108;-71
2022/06/30 19:07:36;;;;;;;3.42;3.22;;;;;;;24.14;50.75;101472.38;4979541;28;99440;-71
2022/06/30 19:10:04;;;;;;;3.70;2.78;;;;;;;24.15;51.09;101473.94;4980236;28;99627;-71
2022/06/30 19:12:32;;;;;;;3.88;2.58;;;;;;;24.17;50.70;101473.59;4979378;28;101634;-71
2022/06/30 19:14:58;;;;;;;2.60;2.20;;;;;;;24.13;51.11;101475.47;4979870;28;101151;-71
2022/06/30 19:17:25;;;;;;;3.55;2.28;;;;;;;24.12;50.89;101479.31;4979654;28;99534;-71
2022/06/30 19:19:51;;;;;;;2.30;2.10;;;;;;;24.08;50.71;101492.84;4979561;28;99493;-71
2022/06/30 19:22:18;;;;;;;1.60;1.60;;;;;;;24.09;51.34;101518.09;4978644;28;101620;-71
2022/06/30 19:25:05;;;;;;;1.77;1.67;;;;;;;24.09;50.96;101545.25;4978954;28;101814;-70
2022/06/30 19:27:32;;;;;;;1.52;1.42;;;;;;;24.04;50.78;101570.75;4979604;28;99418;-70
2022/06/30 19:29:58;;;;;;;1.40;1.30;;;;;;;24.02;50.99;101582.00;4979775;28;100229;-71
2022/06/30 19:32:26;;;;;;;2.25;1.27;;;;;;;24.02;50.59;101548.59;4979106;28;102128;-70
2022/06/30 19:34:53;;;;;;;1.52;1.20;;;;;;;24.02;50.54;101516.00;4979399;28;101360;-69
2022/06/30 19:37:19;;;;;;;2.35;1.10;;;;;;;24.03;50.58;101495.88;4979477;28;99406;-70
2022/06/30 19:39:47;;;;;;;2.17;1.13;;;;;;;24.00;50.78;101518.31;4980482;28;99731;-70
2022/06/30 19:42:29;;;;;;;1.52;1.20;;;;;;;24.00;50.55;101531.88;4982869;28;101625;-70
2022/06/30 19:44:58;;;;;;;1.17;1.10;;;;;;;23.99;50.46;101547.41;4982449;28;101529;-70
2022/06/30 19:47:24;;;;;;;1.33;0.90;;;;;;;23.98;50.61;101555.91;4982616;28;99382;-69
2022/06/30 19:49:51;;;;;;;1.90;0.85;;;;;;;23.97;50.65;101544.25;4983427;28;99608;-70
2022/06/30 19:52:18;;;;;;;1.10;0.98;;;;;;;23.95;50.79;101527.53;4982265;28;101704;-69
2022/06/30 19:54:45;;;;;;;1.23;0.90;;;;;;;23.96;50.93;101506.59;4981904;28;100035;-69
2022/06/30 19:57:12;;;;;;;0.90;0.90;;;;;;;23.95;50.92;101486.81;4983837;28;99896;-70
2022/06/30 19:59:39;;;;;;;2.03;0.90;;;;;;;23.96;50.91;101498.44;4982724;28;99560;-69
2022/06/30 20:02:05;;;;;;;1.67;1.00;;;;;;;23.95;50.95;101500.38;4981605;28;101846;-70
2022/06/30 20:12:55;;;;;;;2.28;0.90;;;;;;;23.90;50.94;101517.00;4984051;28;102143;-71
2022/06/30 20:15:22;;;;;;;0.70;0.70;;;;;;;23.92;50.90;101532.94;4981222;28;101222;-71
2022/06/30 20:17:49;;;;;;;1.25;1.10;;;;;;;23.89;50.81;101531.69;4982222;28;99530;-70
2022/06/30 20:20:16;;;;;;;0.80;0.80;;;;;;;23.90;50.67;101538.72;4981462;28;100083;-71
2022/06/30 20:22:43;;;;;;;1.40;0.73;;;;;;;23.92;51.02;101539.13;4982056;28;101547;-70
2022/06/30 20:25:10;;;;;;;0.75;0.75;;;;;;;23.91;50.79;101550.34;4982819;28;101000;-71
2022/06/30 20:27:38;;;;;;;1.00;0.98;;;;;;;23.91;50.63;101566.66;4982036;28;99493;-70
2022/06/30 20:30:06;;;;;;;1.17;1.05;;;;;;;23.90;50.80;101562.38;4981937;28;99820;-71
2022/06/30 20:32:33;;;;;;;1.00;0.80;;;;;;;23.91;51.27;101542.97;4982544;28;101952;-71
2022/06/30 20:35:00;;;;;;;1.25;0.90;;;;;;;24.03;50.30;101528.47;4982101;28;101579;-70
2022/06/30 20:37:27;;;;;;;0.70;0.70;;;;;;;24.03;50.34;101518.38;4981633;28;99989;-71
2022/06/30 20:39:54;;;;;;;1.05;0.90;;;;;;;24.06;50.69;101535.88;4981484;28;100054;-70
2022/06/30 20:42:21;;;;;;;0.90;0.90;;;;;;;24.06;50.84;101540.53;4981185;28;105029;-71
2022/06/30 20:44:49;;;;;;;1.02;0.93;;;;;;;24.07;50.43;101544.81;4980569;28;101520;-71
2022/06/30 20:47:15;;;;;;;1.63;1.00;;;;;;;24.03;50.78;101552.91;4981400;28;99770;-71
2022/06/30 20:52:27;;;;;;;0.95;0.90;;;;;;;24.07;50.43;101572.00;4981366;28;101946;-70
2022/06/30 20:54:53;;;;;;;0.80;0.80;;;;;;;24.02;50.83;101545.88;4982475;28;100907;-71
2022/06/30 20:57:20;;;;;;;0.98;0.75;;;;;;;24.03;50.62;101526.53;4981472;28;99808;-71
2022/06/30 20:59:47;;;;;;;1.00;0.82;;;;;;;24.07;50.75;101532.03;4982294;28;99704;-70
2022/06/30 21:02:13;;;;;;;3.50;0.88;;;;;;;24.05;50.65;101572.34;4983058;28;101630;-72
2022/06/30 21:04:40;;;;;;;0.95;0.82;;;;;;;24.05;50.93;101583.22;4984383;28;101352;-70
2022/06/30 21:07:07;;;;;;;0.93;0.70;;;;;;;24.13;50.57;101611.31;4984147;28;100169;-70
2022/06/30 21:09:33;;;;;;;1.00;1.00;;;;;;;24.09;50.51;101624.81;4982183;28;99862;-70
2022/06/30 21:12:00;;;;;;;1.20;0.82;;;;;;;24.02;50.80;101614.59;4980287;28;101845;-69
2022/06/30 21:14:26;;;;;;;1.02;0.90;;;;;;;24.01;51.22;101604.09;4982153;28;101157;-70
2022/06/30 21:16:53;;;;;;;0.95;0.95;;;;;;;23.98;50.98;101624.63;4981826;28;100397;-70
2022/06/30 21:19:20;;;;;;;0.82;0.82;;;;;;;24.00;50.85;101641.34;4981432;28;99594;-70
2022/06/30 21:21:47;;;;;;;1.67;1.00;;;;;;;23.98;50.98;101624.63;4979017;28;101478;-71
2022/06/30 21:24:13;;;;;;;1.10;1.00;;;;;;;23.96;51.49;101624.19;4981145;28;101142;-70
2022/06/30 21:26:39;;;;;;;0.70;0.70;;;;;;;23.92;51.24;101628.75;4980833;28;99623;-69
2022/06/30 21:29:07;;;;;;;2.00;0.70;;;;;;;23.98;51.49;101621.91;4982455;28;99849;-70
2022/06/30 21:31:33;;;;;;;1.20;0.77;;;;;;;23.92;51.79;101607.03;4982442;28;101729;-70
2022/06/30 21:34:00;;;;;;;1.33;0.90;;;;;;;23.97;51.20;101600.50;4982163;28;101213;-69
2022/06/30 21:36:26;;;;;;;0.93;0.93;;;;;;;23.93;51.67;101605.09;4982461;28;99402;-72
2022/06/30 21:38:53;;;;;;;1.08;1.00;;;;;;;24.28;52.79;101617.78;4982702;28;99449;-77
